createdAt,value
2023-02-16T00:01:47.326Z,28.50
2023-02-16T00:04:22.431Z,29.30
2023-02-16T00:06:50.791Z,27.60
2023-02-16T00:09:19.840Z,28.80
2023-02-16T00:12:06.748Z,29.30
2023-02-16T00:14:36.265Z,27.80
2023-02-16T00:17:04.803Z,31.20
2023-02-16T00:19:37.200Z,27.40
2023-02-16T00:22:05.593Z,29.10
2023-02-16T00:24:33.879Z,30.20
2023-02-16T00:27:02.082Z,28.70
2023-02-16T00:29:34.216Z,29.80
2023-02-16T00:32:03.609Z,27.70
2023-02-16T00:34:40.099Z,27.30
2023-02-16T00:37:09.764Z,27.80
2023-02-16T00:39:38.569Z,28.50
2023-02-16T00:42:24.330Z,28.20
2023-02-16T00:44:53.400Z,27.40
2023-02-16T00:47:30.424Z,27.50
2023-02-16T00:52:35.354Z,26.30
2023-02-16T00:57:34.450Z,25.90
2023-02-16T01:00:08.755Z,26.80
2023-02-16T01:02:36.878Z,29.30
2023-02-16T01:05:05.034Z,28.30
2023-02-16T01:07:51.855Z,27.70
2023-02-16T01:15:33.953Z,23.90
2023-02-16T01:18:02.054Z,26.80
2023-02-16T01:20:29.876Z,28.50
2023-02-16T01:22:57.990Z,27.90
2023-02-16T01:25:26.193Z,27.00
2023-02-16T01:27:54.250Z,34.10
2023-02-16T01:30:23.610Z,33.00
2023-02-16T01:32:51.922Z,32.50
2023-02-16T01:35:24.285Z,32.30
2023-02-16T01:37:52.052Z,34.30
2023-02-16T01:40:40.150Z,33.20
2023-02-16T01:43:18.927Z,31.60
2023-02-16T01:46:09.698Z,31.10
2023-02-16T01:48:37.491Z,30.70
2023-02-16T01:51:11.984Z,29.50
2023-02-16T01:53:41.714Z,29.40
2023-02-16T01:56:31.175Z,30.00
2023-02-16T01:59:03.445Z,27.20
2023-02-16T02:01:31.417Z,29.50
2023-02-16T02:04:18.312Z,29.90
2023-02-16T02:06:46.700Z,32.60
2023-02-16T02:09:17.581Z,30.30
2023-02-16T02:12:03.850Z,30.30
2023-02-16T02:14:35.621Z,31.70
2023-02-16T02:17:06.695Z,30.40
2023-02-16T02:19:42.105Z,30.00
2023-02-16T02:22:47.154Z,29.80
2023-02-16T02:25:25.379Z,28.40
2023-02-16T02:28:01.235Z,26.70
2023-02-16T02:30:38.337Z,26.70
2023-02-16T02:35:52.376Z,25.60
2023-02-16T02:38:43.457Z,27.00
2023-02-16T02:41:44.462Z,25.50
2023-02-16T02:44:13.836Z,24.30
2023-02-16T02:46:41.753Z,28.00
2023-02-16T02:49:09.638Z,27.10
2023-02-16T02:51:40.459Z,28.40
2023-02-16T02:54:39.656Z,28.60
2023-02-16T02:57:29.417Z,27.60
2023-02-16T03:00:20.635Z,26.40
2023-02-16T03:02:51.052Z,26.40
2023-02-16T03:05:20.559Z,26.80
2023-02-16T03:07:50.656Z,27.70
2023-02-16T03:10:40.153Z,27.30
2023-02-16T03:13:11.945Z,26.50
2023-02-16T03:15:40.823Z,25.60
2023-02-16T03:18:28.223Z,26.90
2023-02-16T03:21:15.631Z,26.80
2023-02-16T03:24:03.381Z,25.40
2023-02-16T03:26:51.191Z,26.20
2023-02-16T03:29:23.070Z,26.40
2023-02-16T03:31:52.251Z,25.80
2023-02-16T03:34:21.063Z,27.30
2023-02-16T03:36:52.386Z,25.20
2023-02-16T03:39:20.905Z,26.50
2023-02-16T03:41:52.913Z,27.20
2023-02-16T03:44:21.226Z,26.50
2023-02-16T03:46:51.932Z,27.60
2023-02-16T03:49:20.136Z,26.40
2023-02-16T03:51:48.027Z,25.10
2023-02-16T03:54:15.960Z,26.50
2023-02-16T03:56:44.127Z,25.00
2023-02-16T03:59:11.910Z,25.80
2023-02-16T04:01:39.698Z,25.70
2023-02-16T04:04:08.263Z,24.20
2023-02-16T04:06:36.462Z,25.20
2023-02-16T04:09:04.322Z,25.90
2023-02-16T04:11:51.033Z,26.40
2023-02-16T04:14:19.582Z,25.60
2023-02-16T04:16:47.439Z,24.30
2023-02-16T04:19:15.311Z,25.90
2023-02-16T04:21:43.169Z,25.70
2023-02-16T04:24:11.156Z,25.50
2023-02-16T04:26:39.106Z,24.90
2023-02-16T04:29:06.842Z,25.30
2023-02-16T04:31:35.139Z,25.60
2023-02-16T04:34:03.170Z,25.80
2023-02-16T04:36:31.734Z,26.90
2023-02-16T04:38:59.839Z,24.20
2023-02-16T04:41:27.829Z,24.20
2023-02-16T04:43:55.820Z,23.30
2023-02-16T04:46:24.150Z,25.80
2023-02-16T04:48:52.450Z,25.60
2023-02-16T04:51:20.424Z,25.40
2023-02-16T04:53:48.386Z,25.00
2023-02-16T04:56:16.560Z,25.20
2023-02-16T04:58:44.534Z,25.10
2023-02-16T05:01:20.219Z,27.60
2023-02-16T05:03:48.450Z,27.60
2023-02-16T05:06:16.731Z,26.20
2023-02-16T05:08:45.604Z,27.80
2023-02-16T05:11:32.748Z,27.10
2023-02-16T05:14:19.284Z,27.10
2023-02-16T05:16:47.306Z,26.70
2023-02-16T05:19:15.683Z,27.10
2023-02-16T05:21:43.561Z,26.30
2023-02-16T05:24:11.924Z,27.30
2023-02-16T05:26:40.404Z,26.70
2023-02-16T05:29:08.783Z,27.20
2023-02-16T05:31:37.855Z,28.40
2023-02-16T05:34:05.844Z,27.80
2023-02-16T05:36:33.754Z,26.40
2023-02-16T05:39:01.683Z,27.50
2023-02-16T05:41:29.357Z,26.30
2023-02-16T05:43:58.537Z,26.40
2023-02-16T05:46:27.707Z,27.60
2023-02-16T05:48:56.122Z,27.00
2023-02-16T05:51:23.880Z,27.40
2023-02-16T05:53:51.644Z,27.30
2023-02-16T05:56:20.260Z,26.00
2023-02-16T05:58:49.326Z,27.00
2023-02-16T06:01:17.280Z,26.20
2023-02-16T06:03:45.270Z,26.90
2023-02-16T06:06:13.943Z,25.90
2023-02-16T06:08:41.761Z,26.70
2023-02-16T06:11:28.732Z,26.40
2023-02-16T06:13:59.241Z,25.40
2023-02-16T06:16:27.370Z,26.40
2023-02-16T06:18:55.863Z,25.60
2023-02-16T06:21:24.047Z,25.20
2023-02-16T06:23:52.184Z,23.60
2023-02-16T06:26:20.945Z,24.90
2023-02-16T06:28:49.028Z,24.20
2023-02-16T06:31:17.440Z,24.70
2023-02-16T06:33:45.502Z,24.60
2023-02-16T06:36:14.005Z,24.60
2023-02-16T06:38:42.002Z,26.30
2023-02-16T06:41:10.481Z,25.50
2023-02-16T06:43:38.497Z,26.40
2023-02-16T06:46:06.488Z,25.80
2023-02-16T06:48:34.796Z,26.60
2023-02-16T06:51:03.256Z,27.00
2023-02-16T06:53:31.769Z,24.30
2023-02-16T06:55:59.722Z,24.50
2023-02-16T06:58:27.499Z,25.30
2023-02-16T07:00:55.420Z,25.20
2023-02-16T07:03:23.548Z,25.00
2023-02-16T07:05:51.697Z,24.10
2023-02-16T07:08:19.725Z,24.00
2023-02-16T07:10:50.442Z,24.60
2023-02-16T07:13:18.472Z,25.30
2023-02-16T07:15:46.866Z,24.30
2023-02-16T07:18:14.975Z,25.30
2023-02-16T07:20:42.889Z,26.40
2023-02-16T07:23:10.855Z,25.40
2023-02-16T07:25:38.825Z,23.80
2023-02-16T07:28:06.791Z,24.90
2023-02-16T07:30:35.720Z,24.20
2023-02-16T07:33:04.159Z,25.10
2023-02-16T07:35:33.468Z,24.80
2023-02-16T07:38:01.585Z,23.70
2023-02-16T07:40:29.609Z,24.00
2023-02-16T07:43:01.561Z,23.80
2023-02-16T07:45:30.313Z,24.90
2023-02-16T07:47:59.564Z,24.20
2023-02-16T07:50:27.818Z,24.90
2023-02-16T07:52:56.193Z,23.40
2023-02-16T07:55:23.984Z,25.20
2023-02-16T07:57:55.614Z,24.20
2023-02-16T08:00:23.918Z,24.10
2023-02-16T08:02:52.342Z,24.40
2023-02-16T08:05:20.542Z,23.70
2023-02-16T08:07:48.540Z,23.60
2023-02-16T08:10:16.685Z,24.00
2023-02-16T08:12:45.584Z,24.10
2023-02-16T08:15:14.162Z,23.20
2023-02-16T08:17:42.431Z,23.30
2023-02-16T08:20:10.636Z,23.20
2023-02-16T08:22:38.604Z,22.80
2023-02-16T08:25:07.229Z,23.40
2023-02-16T08:27:35.959Z,22.40
2023-02-16T08:30:04.687Z,23.00
2023-02-16T08:32:32.505Z,23.50
2023-02-16T08:35:01.079Z,22.70
2023-02-16T08:37:29.797Z,22.30
2023-02-16T08:40:00.725Z,22.30
2023-02-16T08:42:28.673Z,22.60
2023-02-16T08:44:56.882Z,21.00
2023-02-16T08:47:26.205Z,23.10
2023-02-16T08:49:53.887Z,22.30
2023-02-16T08:52:21.754Z,22.70
2023-02-16T08:54:49.713Z,21.60
2023-02-16T08:57:18.833Z,23.30
2023-02-16T09:00:07.172Z,22.10
2023-02-16T09:02:34.971Z,22.60
2023-02-16T09:05:03.011Z,21.60
2023-02-16T09:07:34.978Z,21.50
2023-02-16T09:10:06.120Z,21.20
2023-02-16T09:12:35.413Z,21.90
2023-02-16T09:15:03.481Z,23.40
2023-02-16T09:17:31.349Z,22.60
2023-02-16T09:19:59.618Z,21.40
2023-02-16T09:22:27.385Z,22.60
2023-02-16T09:24:55.339Z,22.80
2023-02-16T09:27:23.124Z,23.00
2023-02-16T09:29:51.348Z,21.60
2023-02-16T09:32:19.462Z,22.60
2023-02-16T09:34:50.503Z,22.20
2023-02-16T09:37:18.926Z,19.40
2023-02-16T09:39:47.257Z,19.60
2023-02-16T09:42:14.972Z,19.70
2023-02-16T09:45:13.778Z,18.70
2023-02-16T09:47:43.282Z,18.30
2023-02-16T09:50:27.835Z,19.50
2023-02-16T09:53:13.999Z,18.20
2023-02-16T09:55:54.736Z,19.20
2023-02-16T09:58:26.064Z,18.70
2023-02-16T10:01:08.811Z,18.60
2023-02-16T10:03:52.277Z,17.20
2023-02-16T10:06:23.474Z,16.00
2023-02-16T10:08:57.308Z,15.80
2023-02-16T10:11:46.918Z,15.70
2023-02-16T10:14:18.733Z,16.20
2023-02-16T10:16:52.621Z,16.30
2023-02-16T10:19:43.475Z,16.40
2023-02-16T10:22:17.361Z,15.40
2023-02-16T10:24:55.537Z,15.00
2023-02-16T10:27:23.901Z,16.30
2023-02-16T10:29:52.090Z,16.60
2023-02-16T10:32:25.070Z,16.30
2023-02-16T10:35:13.835Z,16.90
2023-02-16T10:38:02.330Z,15.70
2023-02-16T10:40:34.553Z,15.40
2023-02-16T10:43:05.509Z,15.40
2023-02-16T10:45:39.787Z,16.00
2023-02-16T10:48:09.525Z,16.20
2023-02-16T10:50:42.053Z,16.40
2023-02-16T10:53:14.096Z,16.90
2023-02-16T10:55:42.024Z,16.20
2023-02-16T10:58:22.460Z,14.80
2023-02-16T11:00:54.382Z,16.10
2023-02-16T11:03:29.271Z,16.20
2023-02-16T11:05:57.018Z,16.20
2023-02-16T11:08:25.833Z,16.60
2023-02-16T11:10:54.192Z,15.60
2023-02-16T11:13:28.404Z,16.70
2023-02-16T11:15:58.253Z,16.10
2023-02-16T11:18:30.462Z,15.90
2023-02-16T11:20:58.963Z,16.10
2023-02-16T11:23:31.205Z,15.80
2023-02-16T11:26:01.055Z,16.30
2023-02-16T11:28:32.734Z,15.90
2023-02-16T11:31:03.901Z,17.20
2023-02-16T11:33:32.846Z,17.70
2023-02-16T11:36:02.993Z,16.90
2023-02-16T11:38:37.707Z,16.90
2023-02-16T11:41:07.216Z,17.20
2023-02-16T11:43:37.733Z,15.90
2023-02-16T11:46:08.094Z,16.40
2023-02-16T11:48:36.644Z,17.00
2023-02-16T11:51:06.795Z,17.20
2023-02-16T11:53:36.446Z,17.50
2023-02-16T11:56:10.868Z,17.30
2023-02-16T11:58:39.471Z,17.40
2023-02-16T12:01:17.246Z,18.00
2023-02-16T12:03:59.907Z,15.80
2023-02-16T12:06:43.712Z,16.20
2023-02-16T12:09:27.027Z,17.10
2023-02-16T12:12:02.888Z,17.20
2023-02-16T12:14:42.732Z,17.70
2023-02-16T12:17:27.970Z,18.10
2023-02-16T12:20:16.030Z,18.30
2023-02-16T12:22:47.896Z,18.10
2023-02-16T12:25:24.724Z,18.30
2023-02-16T12:27:56.037Z,18.80
2023-02-16T12:30:30.214Z,19.00
2023-02-16T12:33:08.194Z,19.00
2023-02-16T12:35:55.153Z,19.70
2023-02-16T12:38:41.752Z,19.80
2023-02-16T12:41:26.704Z,19.70
2023-02-16T12:43:58.315Z,21.00
2023-02-16T12:46:38.240Z,20.90
2023-02-16T12:49:13.079Z,21.50
2023-02-16T12:52:07.793Z,21.80
2023-02-16T12:54:38.473Z,21.90
2023-02-16T12:57:26.217Z,21.60
2023-02-16T12:59:59.606Z,20.40
2023-02-16T13:02:31.570Z,21.80
2023-02-16T13:05:15.300Z,20.50
2023-02-16T13:07:47.162Z,22.70
2023-02-16T13:10:21.300Z,23.00
2023-02-16T13:13:06.763Z,22.30
2023-02-16T13:15:39.952Z,20.70
2023-02-16T13:18:16.497Z,21.50
2023-02-16T13:20:47.040Z,21.00
2023-02-16T13:23:17.880Z,20.90
2023-02-16T13:25:54.786Z,21.30
2023-02-16T13:28:32.209Z,21.10
2023-02-16T13:31:09.328Z,20.90
2023-02-16T13:33:44.370Z,20.40
2023-02-16T13:36:21.466Z,19.70
2023-02-16T13:39:05.147Z,19.60
2023-02-16T13:41:57.623Z,19.50
2023-02-16T13:44:28.356Z,19.40
2023-02-16T13:46:56.946Z,18.90
2023-02-16T13:49:28.996Z,20.50
2023-02-16T13:51:58.200Z,20.10
2023-02-16T13:54:30.887Z,19.00
2023-02-16T13:56:58.777Z,20.30
2023-02-16T13:59:27.018Z,19.90
2023-02-16T14:01:56.224Z,20.50
2023-02-16T14:04:24.916Z,20.70
2023-02-16T14:07:08.112Z,20.00
2023-02-16T14:09:38.973Z,19.30
2023-02-16T14:12:14.566Z,18.90
2023-02-16T14:14:42.540Z,19.30
2023-02-16T14:17:23.871Z,20.10
2023-02-16T14:19:54.399Z,19.40
2023-02-16T14:22:37.614Z,20.20
2023-02-16T14:25:27.500Z,18.40
2023-02-16T14:27:58.554Z,18.00
2023-02-16T14:30:26.604Z,19.20
2023-02-16T14:33:17.706Z,19.50
2023-02-16T14:35:47.677Z,18.20
2023-02-16T14:38:17.663Z,19.50
2023-02-16T14:40:46.133Z,18.80
2023-02-16T14:43:25.571Z,18.70
2023-02-16T14:46:09.126Z,19.20
2023-02-16T14:48:52.972Z,19.30
2023-02-16T14:51:21.225Z,19.90
2023-02-16T14:53:48.977Z,19.00
2023-02-16T14:56:35.895Z,19.90
2023-02-16T14:59:12.059Z,19.20
2023-02-16T15:01:41.879Z,20.00
2023-02-16T15:04:11.283Z,19.90
2023-02-16T15:06:44.284Z,19.40
2023-02-16T15:09:23.430Z,20.00
2023-02-16T15:12:12.336Z,19.20
2023-02-16T15:14:46.347Z,19.90
2023-02-16T15:17:27.357Z,19.00
2023-02-16T15:19:56.821Z,20.40
2023-02-16T15:22:26.440Z,19.30
2023-02-16T15:24:56.255Z,19.80
2023-02-16T15:27:24.620Z,20.30
2023-02-16T15:30:03.447Z,20.10
2023-02-16T15:32:32.455Z,20.90
2023-02-16T15:35:09.410Z,20.40
2023-02-16T15:37:40.602Z,20.50
2023-02-16T15:40:27.670Z,19.20
2023-02-16T15:42:56.045Z,20.60
2023-02-16T15:45:28.215Z,20.90
2023-02-16T15:48:12.976Z,20.10
2023-02-16T15:50:42.653Z,19.30
2023-02-16T15:53:12.030Z,20.60
2023-02-16T15:55:45.006Z,20.80
2023-02-16T15:58:14.827Z,21.00
2023-02-16T16:00:43.867Z,21.20
2023-02-16T16:03:17.180Z,21.30
2023-02-16T16:05:54.959Z,21.70
2023-02-16T16:08:24.763Z,20.50
2023-02-16T16:10:53.457Z,21.30
2023-02-16T16:13:24.753Z,21.40
2023-02-16T16:15:54.345Z,20.40
2023-02-16T16:18:37.561Z,20.10
2023-02-16T16:21:13.679Z,20.90
2023-02-16T16:23:52.312Z,21.50
2023-02-16T16:26:21.406Z,21.90
2023-02-16T16:28:49.211Z,21.20
2023-02-16T16:31:23.264Z,20.40
2023-02-16T16:34:04.880Z,21.00
2023-02-16T16:36:36.145Z,21.40
2023-02-16T16:39:16.106Z,21.40
2023-02-16T16:41:45.159Z,21.70
2023-02-16T16:44:26.877Z,21.90
2023-02-16T16:46:54.825Z,21.00
2023-02-16T16:49:23.264Z,21.90
2023-02-16T16:51:52.308Z,23.30
2023-02-16T16:54:36.044Z,23.90
2023-02-16T16:57:08.432Z,24.20
2023-02-16T16:59:37.192Z,22.40
2023-02-16T17:02:05.231Z,23.20
2023-02-16T17:04:33.446Z,23.50
2023-02-16T17:07:02.896Z,24.70
2023-02-16T17:09:30.704Z,24.40
2023-02-16T17:11:58.969Z,24.40
2023-02-16T17:14:29.920Z,23.20
2023-02-16T17:16:59.415Z,23.80
2023-02-16T17:19:29.474Z,22.20
2023-02-16T17:21:58.018Z,22.90
2023-02-16T17:24:27.315Z,23.40
2023-02-16T17:26:55.278Z,23.70
2023-02-16T17:29:24.378Z,23.80
2023-02-16T17:31:53.294Z,22.30
2023-02-16T17:34:22.065Z,22.10
2023-02-16T17:36:50.078Z,21.90
2023-02-16T17:39:21.670Z,22.00
2023-02-16T17:41:50.780Z,23.20
2023-02-16T17:44:19.046Z,22.10
2023-02-16T17:46:47.729Z,23.30
2023-02-16T17:49:18.741Z,21.50
2023-02-16T17:51:47.754Z,21.40
2023-02-16T17:54:15.829Z,21.60
2023-02-16T17:56:45.270Z,21.40
2023-02-16T17:59:15.599Z,21.50
2023-02-16T18:01:44.142Z,21.20
2023-02-16T18:04:12.142Z,21.50
2023-02-16T18:06:41.528Z,20.50
2023-02-16T18:09:16.602Z,22.00
2023-02-16T18:11:46.460Z,21.60
2023-02-16T18:14:15.866Z,21.50
2023-02-16T18:16:47.023Z,21.00
2023-02-16T18:19:17.422Z,21.10
2023-02-16T18:21:46.314Z,22.00
2023-02-16T18:24:14.810Z,21.50
2023-02-16T18:26:44.959Z,20.70
2023-02-16T18:29:14.002Z,21.30
2023-02-16T18:31:43.238Z,21.80
2023-02-16T18:34:12.196Z,20.30
2023-02-16T18:36:40.373Z,21.30
2023-02-16T18:39:11.836Z,20.80
2023-02-16T18:41:41.639Z,20.70
2023-02-16T18:44:09.615Z,21.80
2023-02-16T18:46:37.878Z,21.40
2023-02-16T18:49:07.285Z,20.30
2023-02-16T18:51:36.389Z,21.70
2023-02-16T18:54:06.925Z,21.20
2023-02-16T18:56:36.823Z,21.20
2023-02-16T18:59:05.329Z,21.00
2023-02-16T19:01:37.769Z,21.50
2023-02-16T19:04:07.645Z,21.60
2023-02-16T19:06:37.910Z,21.90
2023-02-16T19:09:06.301Z,22.30
2023-02-16T19:11:36.288Z,23.60
2023-02-16T19:14:05.709Z,22.50
2023-02-16T19:16:37.716Z,22.80
2023-02-16T19:19:09.298Z,23.40
2023-02-16T19:21:40.676Z,24.00
2023-02-16T19:24:11.246Z,23.00
2023-02-16T19:26:40.850Z,23.60
2023-02-16T19:29:10.778Z,23.50
2023-02-16T19:31:39.900Z,23.10
2023-02-16T19:36:07.381Z,23.90
2023-02-16T19:38:36.989Z,23.90
2023-02-16T19:41:11.716Z,25.00
2023-02-16T19:43:40.510Z,23.40
2023-02-16T19:46:10.489Z,23.80
2023-02-16T19:48:39.195Z,23.30
2023-02-16T19:51:09.931Z,24.60
2023-02-16T19:53:39.572Z,24.70
2023-02-16T19:56:09.249Z,24.60
2023-02-16T19:58:38.797Z,24.10
2023-02-16T20:01:10.309Z,24.00
2023-02-16T20:03:41.173Z,23.30
2023-02-16T20:06:18.625Z,23.60
2023-02-16T20:08:49.871Z,23.80
2023-02-16T20:11:22.140Z,24.10
2023-02-16T20:13:50.431Z,24.30
2023-02-16T20:16:19.020Z,24.20
2023-02-16T20:18:47.482Z,23.20
2023-02-16T20:21:21.149Z,24.20
2023-02-16T20:23:50.497Z,25.00
2023-02-16T20:26:21.129Z,25.00
2023-02-16T20:28:50.556Z,23.50
2023-02-16T20:31:21.532Z,23.10
2023-02-16T20:33:50.033Z,23.60
2023-02-16T20:36:19.748Z,23.60
2023-02-16T20:38:48.841Z,23.20
2023-02-16T20:41:17.524Z,23.80
2023-02-16T20:43:46.806Z,24.30
2023-02-16T20:46:16.862Z,23.10
2023-02-16T20:48:45.217Z,23.90
2023-02-16T20:51:13.955Z,24.00
2023-02-16T20:53:42.293Z,22.90
2023-02-16T20:56:15.271Z,23.30
2023-02-16T20:58:44.038Z,23.50
2023-02-16T21:01:19.217Z,22.90
2023-02-16T21:03:48.379Z,23.20
2023-02-16T21:06:18.930Z,23.10
2023-02-16T21:08:49.025Z,22.80
2023-02-16T21:11:17.708Z,22.40
2023-02-16T21:13:45.726Z,22.30
2023-02-16T21:16:14.632Z,23.30
2023-02-16T21:18:43.673Z,23.30
2023-02-16T21:21:21.367Z,22.60
2023-02-16T21:23:50.781Z,23.40
2023-02-16T21:26:21.501Z,22.70
2023-02-16T21:28:49.951Z,23.70
2023-02-16T21:31:21.777Z,23.00
2023-02-16T21:33:50.013Z,23.90
2023-02-16T21:36:20.867Z,23.40
2023-02-16T21:38:49.033Z,22.30
2023-02-16T21:41:25.379Z,23.50
2023-02-16T21:43:56.936Z,22.50
2023-02-16T21:46:26.546Z,22.30
2023-02-16T21:48:55.332Z,21.70
2023-02-16T21:51:28.175Z,22.00
2023-02-16T21:53:58.021Z,20.90
2023-02-16T21:56:26.204Z,20.50
2023-02-16T21:58:54.389Z,19.40
2023-02-16T22:01:24.043Z,19.70
2023-02-16T22:03:58.799Z,17.90
2023-02-16T22:06:28.203Z,18.40
2023-02-16T22:08:56.504Z,19.50
2023-02-16T22:11:26.186Z,18.80
2023-02-16T22:13:54.996Z,18.80
2023-02-16T22:16:24.103Z,18.50
2023-02-16T22:19:04.944Z,18.70
2023-02-16T22:21:38.638Z,18.50
2023-02-16T22:24:07.378Z,18.80
2023-02-16T22:26:35.670Z,18.60
2023-02-16T22:29:04.596Z,18.40
2023-02-16T22:31:32.718Z,19.90
2023-02-16T22:34:05.383Z,19.30
2023-02-16T22:36:34.298Z,18.80
2023-02-16T22:39:02.140Z,18.60
2023-02-16T22:41:30.274Z,19.30
2023-02-16T22:44:02.239Z,19.00
2023-02-16T22:46:30.225Z,19.30
2023-02-16T22:48:58.888Z,18.60
2023-02-16T22:51:29.531Z,17.80
2023-02-16T22:53:58.616Z,17.10
2023-02-16T22:56:27.138Z,18.20
2023-02-16T22:58:57.544Z,18.80
2023-02-16T23:01:27.103Z,19.30
2023-02-16T23:03:59.311Z,20.70
2023-02-16T23:06:30.153Z,20.30
2023-02-16T23:09:02.226Z,20.30
2023-02-16T23:11:30.420Z,20.60
2023-02-16T23:13:59.774Z,20.60
2023-02-16T23:16:29.268Z,19.30
2023-02-16T23:18:58.544Z,20.60
2023-02-16T23:21:27.627Z,19.80
2023-02-16T23:23:56.146Z,19.60
2023-02-16T23:26:25.143Z,19.90
2023-02-16T23:28:53.721Z,19.30
2023-02-16T23:31:22.343Z,20.00
2023-02-16T23:33:51.352Z,19.10
2023-02-16T23:36:19.379Z,19.00
2023-02-16T23:38:47.360Z,18.90
2023-02-16T23:41:15.724Z,18.80
2023-02-16T23:43:43.708Z,19.00
2023-02-16T23:46:12.298Z,17.00
2023-02-16T23:48:40.309Z,18.30
2023-02-16T23:51:10.014Z,18.00
2023-02-16T23:53:39.409Z,17.80
2023-02-16T23:56:09.666Z,18.90
2023-02-16T23:58:41.403Z,18.80
